Terminal Aerodrome Forecast
Issued by NWS

Home | Current Version | Previous Version | Text Only | Print | Product List | Glossary On
Versions: 1 2 3 4 5 6 7 8 9 10 11 12 13 14 15 16 17 18 19 20 21 22 23 24 25 26 27 28 29 30
000
FTUS42 KTBW 301142
TAFRSW
TAF
KRSW 301142Z 3012/0112 23008KT P6SM VCSH SCT020 BKN100 OVC250
     FM301700 28010G16KT P6SM VCTS FEW015CB BKN025
     FM302100 31009KT P6SM SCT020 OVC040
     FM010300 33007KT P6SM BKN035=

USA.gov is the U.S. government's official web portal to all federal, state and local government web resources and services.